createdAt,value
2022-09-07T00:01:54.209Z,17.80
2022-09-07T00:04:23.287Z,17.81
2022-09-07T00:06:50.981Z,17.82
2022-09-07T00:09:18.713Z,17.84
2022-09-07T00:11:46.811Z,17.87
2022-09-07T00:14:14.565Z,17.86
2022-09-07T00:16:42.320Z,17.87
2022-09-07T00:19:10.033Z,17.93
2022-09-07T00:21:39.087Z,17.89
2022-09-07T00:24:07.085Z,17.97
2022-09-07T00:26:35.195Z,17.94
2022-09-07T00:29:04.641Z,17.65
2022-09-07T00:31:32.582Z,17.64
2022-09-07T00:34:01.644Z,17.62
2022-09-07T00:36:29.872Z,17.59
2022-09-07T00:38:59.427Z,17.69
2022-09-07T00:41:27.135Z,17.62
2022-09-07T00:43:56.930Z,17.64
2022-09-07T00:46:26.101Z,17.58
2022-09-07T00:48:58.374Z,17.59
2022-09-07T00:51:29.110Z,17.61
2022-09-07T00:54:01.010Z,17.57
2022-09-07T00:56:31.547Z,17.49
2022-09-07T00:58:59.567Z,17.36
2022-09-07T01:01:28.046Z,17.43
2022-09-07T01:03:58.582Z,17.32
2022-09-07T01:06:29.068Z,17.25
2022-09-07T01:09:01.454Z,17.25
2022-09-07T01:11:29.306Z,17.23
2022-09-07T01:13:58.072Z,17.40
2022-09-07T01:16:36.786Z,17.35
2022-09-07T01:19:15.139Z,17.42
2022-09-07T01:21:50.465Z,17.32
2022-09-07T01:24:36.502Z,17.32
2022-09-07T01:27:40.662Z,17.38
2022-09-07T01:30:11.426Z,17.36
2022-09-07T01:32:50.724Z,17.32
2022-09-07T01:35:24.185Z,17.41
2022-09-07T01:37:57.581Z,17.40
2022-09-07T01:40:31.995Z,17.48
2022-09-07T01:43:03.372Z,17.50
2022-09-07T01:45:35.402Z,17.49
2022-09-07T01:48:05.989Z,17.40
2022-09-07T01:50:36.680Z,17.40
2022-09-07T01:53:08.933Z,17.48
2022-09-07T01:55:39.213Z,17.45
2022-09-07T01:58:10.871Z,17.56
2022-09-07T02:00:43.156Z,17.42
2022-09-07T02:03:15.045Z,17.47
2022-09-07T02:05:48.061Z,17.31
2022-09-07T02:08:18.935Z,17.19
2022-09-07T02:10:49.828Z,17.48
2022-09-07T02:13:20.995Z,17.29
2022-09-07T02:15:53.328Z,17.32
2022-09-07T02:18:21.875Z,17.04
2022-09-07T02:20:53.304Z,16.94
2022-09-07T02:23:24.158Z,17.04
2022-09-07T02:25:55.082Z,16.91
2022-09-07T02:28:25.472Z,17.03
2022-09-07T02:30:54.626Z,17.01
2022-09-07T02:33:23.297Z,17.07
2022-09-07T02:35:51.267Z,17.11
2022-09-07T02:38:19.353Z,17.25
2022-09-07T02:40:52.250Z,17.18
2022-09-07T02:43:20.968Z,17.19
2022-09-07T02:46:02.568Z,17.11
2022-09-07T02:48:35.318Z,17.14
2022-09-07T02:51:09.969Z,17.11
2022-09-07T02:53:55.430Z,17.07
2022-09-07T02:56:36.384Z,17.03
2022-09-07T02:59:10.325Z,17.05
2022-09-07T03:01:44.958Z,17.00
2022-09-07T03:04:15.480Z,17.10
2022-09-07T03:06:45.467Z,17.05
2022-09-07T03:09:16.932Z,17.03
2022-09-07T03:11:44.921Z,16.96
2022-09-07T03:14:14.192Z,17.12
2022-09-07T03:16:43.732Z,17.05
2022-09-07T03:19:11.524Z,16.99
2022-09-07T03:21:39.224Z,17.00
2022-09-07T03:24:07.401Z,17.06
2022-09-07T03:26:36.472Z,17.03
2022-09-07T03:29:04.150Z,16.99
2022-09-07T03:31:33.125Z,16.96
2022-09-07T03:34:02.246Z,16.94
2022-09-07T03:36:30.818Z,16.93
2022-09-07T03:38:59.467Z,16.91
2022-09-07T03:41:27.604Z,16.96
2022-09-07T03:43:55.480Z,16.92
2022-09-07T03:46:23.687Z,16.89
2022-09-07T03:48:51.437Z,16.87
2022-09-07T03:51:20.443Z,16.83
2022-09-07T03:53:48.603Z,16.78
2022-09-07T03:56:18.178Z,16.81
2022-09-07T03:58:47.126Z,16.78
2022-09-07T04:01:17.088Z,16.76
2022-09-07T04:03:45.251Z,16.67
2022-09-07T04:06:13.811Z,16.73
2022-09-07T04:08:43.784Z,16.75
2022-09-07T04:11:13.815Z,16.75
2022-09-07T04:13:41.875Z,16.75
2022-09-07T04:16:14.090Z,16.80
2022-09-07T04:18:42.172Z,16.79
2022-09-07T04:21:10.443Z,16.79
2022-09-07T04:23:39.100Z,16.81
2022-09-07T04:26:08.603Z,16.79
2022-09-07T04:28:36.369Z,16.84
2022-09-07T04:31:04.274Z,16.84
2022-09-07T04:33:32.162Z,16.84
2022-09-07T04:36:00.820Z,16.80
2022-09-07T04:38:29.345Z,16.77
2022-09-07T04:41:01.187Z,16.72
2022-09-07T04:43:30.935Z,16.68
2022-09-07T04:45:59.186Z,16.63
2022-09-07T04:48:26.933Z,16.62
2022-09-07T04:50:54.705Z,16.53
2022-09-07T04:53:22.447Z,16.55
2022-09-07T04:55:50.150Z,16.61
2022-09-07T04:58:17.828Z,16.57
2022-09-07T05:00:46.953Z,16.61
2022-09-07T05:03:14.676Z,16.54
2022-09-07T05:05:42.389Z,16.50
2022-09-07T05:08:10.027Z,16.52
2022-09-07T05:10:37.811Z,16.52
2022-09-07T05:13:05.528Z,16.53
2022-09-07T05:15:33.702Z,16.56
2022-09-07T05:18:02.724Z,16.52
2022-09-07T05:20:30.941Z,16.53
2022-09-07T05:22:59.542Z,16.58
2022-09-07T05:25:31.328Z,16.63
2022-09-07T05:27:59.082Z,16.64
2022-09-07T05:33:16.123Z,16.70
2022-09-07T05:35:43.860Z,16.76
2022-09-07T05:38:11.536Z,16.80
2022-09-07T05:40:42.145Z,16.91
2022-09-07T05:43:10.388Z,17.01
2022-09-07T05:45:42.185Z,17.01
2022-09-07T05:48:09.967Z,17.00
2022-09-07T05:50:38.981Z,17.07
2022-09-07T05:53:08.184Z,17.14
2022-09-07T05:55:35.854Z,17.20
2022-09-07T05:58:03.584Z,17.21
2022-09-07T06:00:31.681Z,17.18
2022-09-07T06:02:59.630Z,17.25
2022-09-07T06:05:27.578Z,17.24
2022-09-07T06:07:56.621Z,17.35
2022-09-07T06:13:12.018Z,17.54
2022-09-07T06:15:39.946Z,17.64
2022-09-07T06:18:08.018Z,17.73
2022-09-07T06:20:35.696Z,17.82
2022-09-07T06:23:04.790Z,17.95
2022-09-07T06:25:32.479Z,18.02
2022-09-07T06:28:00.333Z,18.11
2022-09-07T06:30:28.191Z,18.22
2022-09-07T06:32:55.938Z,18.45
2022-09-07T06:35:23.632Z,18.49
2022-09-07T06:37:51.556Z,18.63
2022-09-07T06:40:20.656Z,18.66
2022-09-07T06:42:50.391Z,18.69
2022-09-07T06:45:18.059Z,18.60
2022-09-07T06:47:45.704Z,18.56
2022-09-07T06:50:13.473Z,18.57
2022-09-07T06:55:32.534Z,18.63
2022-09-07T06:58:00.314Z,18.78
2022-09-07T07:00:28.059Z,18.88
2022-09-07T07:02:55.811Z,18.90
2022-09-07T07:05:23.573Z,19.06
2022-09-07T07:07:51.316Z,19.15
2022-09-07T07:10:24.254Z,19.20
2022-09-07T07:12:57.335Z,19.32
2022-09-07T07:15:26.835Z,19.36
2022-09-07T07:18:00.339Z,19.54
2022-09-07T07:20:33.462Z,19.61
2022-09-07T07:23:02.403Z,19.65
2022-09-07T07:25:30.305Z,19.67
2022-09-07T07:30:47.201Z,19.76
2022-09-07T07:33:15.245Z,19.86
2022-09-07T07:35:43.161Z,19.82
2022-09-07T07:43:48.293Z,19.90
2022-09-07T07:46:17.376Z,19.80
2022-09-07T07:48:49.000Z,19.90
2022-09-07T07:51:16.670Z,20.02
2022-09-07T07:53:44.306Z,20.16
2022-09-07T07:56:12.811Z,20.22
2022-09-07T07:58:40.759Z,20.05
2022-09-07T08:01:12.051Z,19.99
2022-09-07T08:03:41.089Z,19.90
2022-09-07T08:06:09.943Z,20.03
2022-09-07T08:08:38.330Z,20.18
2022-09-07T08:11:08.348Z,20.18
2022-09-07T08:13:36.110Z,20.24
2022-09-07T08:16:05.569Z,20.35
2022-09-07T08:18:36.072Z,20.57
2022-09-07T08:21:05.092Z,20.61
2022-09-07T08:23:33.480Z,20.89
2022-09-07T08:26:01.535Z,20.93
2022-09-07T08:28:30.872Z,20.92
2022-09-07T08:30:59.154Z,21.04
2022-09-07T08:33:26.909Z,21.22
2022-09-07T08:36:00.572Z,21.22
2022-09-07T08:38:29.395Z,21.39
2022-09-07T08:40:57.393Z,21.37
2022-09-07T08:43:41.900Z,21.45
2022-09-07T08:46:16.442Z,21.64
2022-09-07T08:48:44.233Z,21.68
2022-09-07T08:51:23.655Z,21.79
2022-09-07T08:53:51.974Z,21.91
2022-09-07T08:56:22.876Z,21.95
2022-09-07T08:58:52.099Z,21.97
2022-09-07T09:01:37.110Z,22.05
2022-09-07T09:04:22.431Z,22.14
2022-09-07T09:07:06.885Z,22.28
2022-09-07T09:09:46.977Z,22.51
2022-09-07T09:12:18.789Z,22.43
2022-09-07T09:14:57.513Z,22.57
2022-09-07T09:17:30.404Z,22.58
2022-09-07T09:20:04.318Z,22.67
2022-09-07T09:22:33.446Z,22.62
2022-09-07T09:25:05.815Z,22.81
2022-09-07T09:27:33.520Z,22.92
2022-09-07T09:30:01.094Z,23.10
2022-09-07T09:32:37.761Z,23.11
2022-09-07T09:35:13.853Z,23.25
2022-09-07T09:37:43.654Z,23.28
2022-09-07T09:40:22.806Z,23.26
2022-09-07T09:42:59.929Z,23.47
2022-09-07T09:45:29.966Z,23.43
2022-09-07T09:47:58.762Z,23.39
2022-09-07T09:53:25.585Z,23.59
2022-09-07T09:55:53.846Z,23.76
2022-09-07T10:01:26.697Z,23.92
2022-09-07T10:06:27.538Z,23.95
2022-09-07T10:09:01.737Z,24.20
2022-09-07T10:14:34.176Z,24.38
2022-09-07T10:17:02.716Z,24.52
2022-09-07T10:19:36.081Z,24.70
2022-09-07T10:22:05.348Z,24.93
2022-09-07T10:24:39.241Z,24.95
2022-09-07T10:27:20.979Z,24.78
2022-09-07T10:29:49.020Z,24.70
2022-09-07T10:32:27.865Z,24.91
2022-09-07T10:35:03.112Z,25.03
2022-09-07T10:37:37.204Z,25.27
2022-09-07T10:40:18.291Z,25.12
2022-09-07T10:45:48.183Z,25.17
2022-09-07T10:48:20.936Z,25.33
2022-09-07T10:50:51.141Z,25.11
2022-09-07T10:53:41.253Z,25.25
2022-09-07T10:56:12.992Z,25.38
2022-09-07T10:59:02.347Z,25.67
2022-09-07T11:01:40.692Z,25.64
2022-09-07T11:04:33.232Z,25.79
2022-09-07T11:07:05.246Z,25.83
2022-09-07T11:09:41.941Z,25.61
2022-09-07T11:12:16.309Z,25.71
2022-09-07T11:14:49.019Z,25.90
2022-09-07T11:17:18.562Z,25.92
2022-09-07T11:19:52.732Z,26.16
2022-09-07T11:22:28.381Z,26.37
2022-09-07T11:27:52.418Z,25.83
2022-09-07T11:30:22.428Z,25.51
2022-09-07T11:32:59.912Z,25.33
2022-09-07T11:35:36.177Z,25.11
2022-09-07T11:38:11.631Z,25.00
2022-09-07T11:40:43.905Z,24.90
2022-09-07T11:43:19.429Z,24.94
2022-09-07T11:45:50.584Z,24.90
2022-09-07T11:48:22.273Z,25.19
2022-09-07T11:50:53.117Z,25.58
2022-09-07T11:53:23.395Z,25.66
2022-09-07T11:55:55.431Z,25.63
2022-09-07T11:58:38.373Z,25.58
2022-09-07T12:01:12.878Z,25.67
2022-09-07T12:04:13.222Z,25.58
2022-09-07T12:06:55.279Z,26.00
2022-09-07T12:09:34.130Z,26.49
2022-09-07T12:12:11.814Z,26.49
2022-09-07T12:14:50.367Z,26.74
2022-09-07T12:17:27.933Z,27.08
2022-09-07T12:20:18.127Z,27.49
2022-09-07T12:23:04.323Z,27.54
2022-09-07T12:25:33.447Z,27.38
2022-09-07T12:28:01.533Z,27.39
2022-09-07T12:30:58.193Z,27.23
2022-09-07T12:33:30.808Z,27.67
2022-09-07T12:36:00.801Z,27.43
2022-09-07T12:39:11.166Z,27.45
2022-09-07T12:41:47.648Z,27.44
2022-09-07T12:44:29.195Z,27.48
2022-09-07T12:47:00.710Z,27.38
2022-09-07T12:50:04.385Z,27.61
2022-09-07T12:52:48.568Z,27.72
2022-09-07T12:55:29.687Z,27.46
2022-09-07T12:58:06.698Z,27.79
2022-09-07T13:00:39.183Z,27.73
2022-09-07T13:06:17.736Z,27.58
2022-09-07T13:08:57.299Z,27.50
2022-09-07T13:11:32.937Z,27.71
2022-09-07T13:14:04.761Z,27.64
2022-09-07T13:20:08.899Z,27.66
2022-09-07T13:22:57.754Z,27.85
2022-09-07T13:25:46.964Z,27.58
2022-09-07T13:28:25.060Z,27.41
2022-09-07T13:31:05.637Z,27.30
2022-09-07T13:33:48.250Z,27.05
2022-09-07T13:36:33.398Z,26.95
2022-09-07T13:39:02.543Z,26.97
2022-09-07T13:41:33.688Z,26.98
2022-09-07T13:44:03.753Z,26.85
2022-09-07T13:46:48.876Z,27.01
2022-09-07T13:49:30.367Z,26.80
2022-09-07T13:52:04.222Z,26.63
2022-09-07T13:54:43.495Z,26.51
2022-09-07T13:57:17.866Z,26.56
2022-09-07T13:59:46.604Z,26.56
2022-09-07T14:02:23.366Z,26.46
2022-09-07T14:04:52.316Z,26.43
2022-09-07T14:07:21.735Z,26.43
2022-09-07T14:10:05.403Z,26.40
2022-09-07T14:12:33.223Z,26.24
2022-09-07T14:15:20.961Z,26.36
2022-09-07T14:17:49.229Z,26.43
2022-09-07T14:20:19.042Z,26.49
2022-09-07T14:22:49.463Z,26.36
2022-09-07T14:25:22.200Z,26.34
2022-09-07T14:27:50.462Z,26.32
2022-09-07T14:30:23.977Z,26.24
2022-09-07T14:32:53.312Z,25.97
2022-09-07T14:35:22.228Z,25.93
2022-09-07T14:37:50.685Z,25.77
2022-09-07T14:40:21.930Z,25.74
2022-09-07T14:42:50.423Z,25.68
2022-09-07T14:45:20.866Z,25.67
2022-09-07T14:47:50.501Z,25.74
2022-09-07T14:50:21.708Z,25.68
2022-09-07T14:53:34.076Z,25.56
2022-09-07T14:55:41.612Z,25.50
2022-09-07T14:58:11.471Z,25.37
2022-09-07T15:00:39.433Z,25.24
2022-09-07T15:03:29.589Z,25.15
2022-09-07T15:06:00.834Z,25.04
2022-09-07T15:08:40.220Z,25.28
2022-09-07T15:14:00.598Z,25.21
2022-09-07T15:16:31.051Z,25.42
2022-09-07T15:19:01.943Z,25.24
2022-09-07T15:21:32.046Z,25.15
2022-09-07T15:24:01.297Z,25.13
2022-09-07T15:29:21.726Z,25.50
2022-09-07T15:32:02.271Z,25.53
2022-09-07T15:34:32.154Z,25.66
2022-09-07T15:37:00.888Z,25.70
2022-09-07T15:39:29.746Z,25.65
2022-09-07T15:42:58.893Z,25.51
2022-09-07T15:44:46.799Z,25.47
2022-09-07T15:50:01.871Z,25.35
2022-09-07T15:52:31.471Z,25.37
2022-09-07T15:54:59.404Z,25.32
2022-09-07T16:00:16.571Z,25.51
2022-09-07T16:05:31.932Z,25.16
2022-09-07T16:10:53.552Z,25.05
2022-09-07T16:13:24.000Z,25.11
2022-09-07T16:15:52.078Z,25.13
2022-09-07T16:18:20.194Z,25.27
2022-09-07T16:20:52.697Z,25.21
2022-09-07T16:23:20.693Z,25.03
2022-09-07T16:25:58.294Z,24.92
2022-09-07T16:28:28.050Z,24.93
2022-09-07T16:30:56.489Z,24.74
2022-09-07T16:33:31.609Z,24.64
2022-09-07T16:36:06.073Z,24.50
2022-09-07T16:38:49.575Z,24.39
2022-09-07T16:41:20.405Z,24.34
2022-09-07T16:43:52.484Z,24.41
2022-09-07T16:46:22.748Z,24.34
2022-09-07T16:48:51.727Z,24.08
2022-09-07T16:51:21.155Z,23.96
2022-09-07T16:53:50.028Z,24.15
2022-09-07T16:56:19.329Z,24.07
2022-09-07T16:58:50.109Z,23.79
2022-09-07T17:01:21.340Z,23.93
2022-09-07T17:03:50.290Z,23.79
2022-09-07T17:06:19.302Z,23.81
2022-09-07T17:08:47.374Z,23.72
2022-09-07T17:11:17.216Z,23.61
2022-09-07T17:13:45.700Z,23.49
2022-09-07T17:16:14.844Z,23.47
2022-09-07T17:21:33.191Z,23.35
2022-09-07T17:24:01.662Z,23.32
2022-09-07T17:26:31.520Z,23.22
2022-09-07T17:29:00.773Z,23.16
2022-09-07T17:34:20.742Z,22.85
2022-09-07T17:36:48.836Z,22.68
2022-09-07T17:39:18.874Z,22.77
2022-09-07T17:41:48.154Z,22.70
2022-09-07T17:44:15.912Z,22.70
2022-09-07T17:46:43.490Z,22.64
2022-09-07T17:49:13.991Z,22.63
2022-09-07T17:51:43.248Z,22.63
2022-09-07T17:54:13.366Z,22.59
2022-09-07T17:56:41.748Z,22.56
2022-09-07T18:01:57.627Z,22.45
2022-09-07T18:04:25.686Z,22.42
2022-09-07T18:06:55.515Z,22.31
2022-09-07T18:09:23.175Z,22.28
2022-09-07T18:11:51.189Z,21.97
2022-09-07T18:14:19.404Z,22.04
2022-09-07T18:16:49.213Z,22.13
2022-09-07T18:19:18.275Z,22.12
2022-09-07T18:21:47.668Z,22.04
2022-09-07T18:24:19.486Z,22.04
2022-09-07T18:26:52.309Z,22.02
2022-09-07T18:29:31.210Z,21.93
2022-09-07T18:32:02.438Z,21.88
2022-09-07T18:34:31.836Z,21.80
2022-09-07T18:37:00.013Z,21.74
2022-09-07T18:39:29.402Z,21.65
2022-09-07T18:41:57.209Z,21.54
2022-09-07T18:47:21.651Z,21.20
2022-09-07T18:49:49.624Z,21.40
2022-09-07T18:55:08.514Z,20.96
2022-09-07T18:57:36.656Z,20.67
2022-09-07T19:00:05.448Z,20.70
2022-09-07T19:02:33.340Z,20.62
2022-09-07T19:07:48.727Z,20.46
2022-09-07T19:10:18.028Z,20.45
2022-09-07T19:12:46.321Z,20.45
2022-09-07T19:15:14.210Z,20.56
2022-09-07T19:17:41.939Z,20.37
2022-09-07T19:20:10.597Z,20.33
2022-09-07T19:22:39.916Z,20.39
2022-09-07T19:25:07.948Z,20.26
2022-09-07T19:27:36.859Z,20.40
2022-09-07T19:30:05.052Z,20.50
2022-09-07T19:32:32.637Z,20.48
2022-09-07T19:35:00.239Z,20.32
2022-09-07T19:37:29.817Z,20.25
2022-09-07T19:39:57.499Z,20.36
2022-09-07T19:42:26.169Z,20.15
2022-09-07T19:44:55.203Z,20.18
2022-09-07T19:47:23.829Z,20.17
2022-09-07T19:49:52.184Z,20.16
2022-09-07T19:52:19.759Z,20.18
2022-09-07T19:54:47.256Z,20.15
2022-09-07T19:57:15.065Z,20.17
2022-09-07T19:59:45.521Z,20.17
2022-09-07T20:02:14.504Z,20.11
2022-09-07T20:04:44.319Z,20.10
2022-09-07T20:07:12.757Z,20.09
2022-09-07T20:09:40.427Z,20.06
2022-09-07T20:12:08.949Z,20.06
2022-09-07T20:14:36.936Z,20.05
2022-09-07T20:17:04.535Z,20.03
2022-09-07T20:19:34.064Z,20.04
2022-09-07T20:22:04.064Z,20.02
2022-09-07T20:24:31.691Z,19.92
2022-09-07T20:27:02.642Z,19.94
2022-09-07T20:29:31.554Z,19.90
2022-09-07T20:32:00.398Z,19.84
2022-09-07T20:34:28.906Z,19.78
2022-09-07T20:36:58.735Z,19.77
2022-09-07T20:39:26.792Z,19.72
2022-09-07T20:41:54.476Z,19.72
2022-09-07T20:44:22.071Z,19.67
2022-09-07T20:46:49.835Z,19.65
2022-09-07T20:49:17.539Z,19.67
2022-09-07T20:51:49.193Z,19.56
2022-09-07T20:54:20.070Z,19.62
2022-09-07T20:56:47.879Z,19.52
2022-09-07T20:59:15.671Z,19.50
2022-09-07T21:01:43.296Z,19.59
2022-09-07T21:04:10.983Z,19.53
2022-09-07T21:06:38.588Z,19.53
2022-09-07T21:09:06.430Z,19.41
2022-09-07T21:11:36.281Z,19.33
2022-09-07T21:14:06.906Z,19.25
2022-09-07T21:16:35.444Z,19.25
2022-09-07T21:19:04.942Z,19.28
2022-09-07T21:21:38.579Z,19.30
2022-09-07T21:24:08.045Z,19.27
2022-09-07T21:26:37.248Z,19.27
2022-09-07T21:29:06.011Z,19.25
2022-09-07T21:31:34.477Z,19.22
2022-09-07T21:34:03.242Z,19.19
2022-09-07T21:36:31.127Z,19.19
2022-09-07T21:38:58.797Z,19.15
2022-09-07T21:41:27.059Z,19.11
2022-09-07T21:44:00.209Z,19.10
2022-09-07T21:46:29.102Z,19.13
2022-09-07T21:48:58.027Z,19.03
2022-09-07T21:51:27.145Z,19.08
2022-09-07T21:53:55.548Z,19.03
2022-09-07T21:56:23.502Z,18.97
2022-09-07T21:58:54.998Z,18.98
2022-09-07T22:01:25.108Z,19.03
2022-09-07T22:03:55.640Z,19.01
2022-09-07T22:06:24.071Z,19.07
2022-09-07T22:08:51.831Z,19.10
2022-09-07T22:11:21.523Z,19.07
2022-09-07T22:13:49.213Z,19.03
2022-09-07T22:16:20.002Z,19.01
2022-09-07T22:18:49.100Z,19.04
2022-09-07T22:21:19.231Z,19.01
2022-09-07T22:23:48.678Z,18.94
2022-09-07T22:26:18.988Z,18.96
2022-09-07T22:28:46.697Z,18.94
2022-09-07T22:31:16.872Z,18.92
2022-09-07T22:33:46.891Z,18.96
2022-09-07T22:36:17.399Z,18.87
2022-09-07T22:38:46.159Z,18.85
2022-09-07T22:41:15.633Z,18.82
2022-09-07T22:43:43.770Z,18.81
2022-09-07T22:46:12.353Z,18.81
2022-09-07T22:48:40.566Z,18.80
2022-09-07T22:51:09.077Z,18.70
2022-09-07T22:53:39.768Z,18.77
2022-09-07T22:56:08.813Z,18.61
2022-09-07T22:58:37.205Z,18.65
2022-09-07T23:01:05.326Z,18.60
2022-09-07T23:03:34.366Z,18.50
2022-09-07T23:06:02.441Z,18.37
2022-09-07T23:08:30.789Z,18.38
2022-09-07T23:11:05.737Z,18.23
2022-09-07T23:13:33.575Z,18.08
2022-09-07T23:16:04.663Z,18.06
2022-09-07T23:18:32.731Z,18.10
2022-09-07T23:21:00.877Z,18.04
2022-09-07T23:23:29.752Z,18.08
2022-09-07T23:25:57.625Z,17.99
2022-09-07T23:28:26.772Z,17.94
2022-09-07T23:30:55.037Z,17.94
2022-09-07T23:33:22.830Z,17.89
2022-09-07T23:35:57.614Z,17.89
2022-09-07T23:38:26.059Z,17.94
2022-09-07T23:40:54.597Z,18.03
2022-09-07T23:43:22.691Z,18.24
2022-09-07T23:45:51.853Z,18.28
2022-09-07T23:48:20.072Z,18.08
2022-09-07T23:50:47.960Z,18.09
2022-09-07T23:53:16.185Z,18.12
2022-09-07T23:55:43.965Z,17.87
2022-09-07T23:58:12.152Z,17.79
